createdAt,value
2022-12-14T00:01:49.539Z,5.63
2022-12-14T00:04:17.246Z,6.10
2022-12-14T00:06:44.628Z,5.73
2022-12-14T00:09:11.905Z,5.23
2022-12-14T00:11:39.396Z,5.33
2022-12-14T00:14:06.687Z,5.90
2022-12-14T00:16:35.056Z,5.47
2022-12-14T00:19:04.366Z,6.73
2022-12-14T00:21:31.698Z,5.83
2022-12-14T00:23:59.948Z,5.33
2022-12-14T00:26:32.398Z,6.50
2022-12-14T00:29:01.731Z,5.80
2022-12-14T00:31:29.688Z,5.20
2022-12-14T00:33:56.955Z,4.93
2022-12-14T00:36:24.572Z,6.30
2022-12-14T00:38:51.873Z,5.80
2022-12-14T00:41:19.101Z,5.03
2022-12-14T00:43:49.436Z,5.53
2022-12-14T00:46:17.992Z,5.47
2022-12-14T00:48:45.566Z,5.57
2022-12-14T00:51:14.862Z,5.07
2022-12-14T00:53:44.354Z,5.87
2022-12-14T00:56:11.954Z,5.23
2022-12-14T00:58:39.381Z,5.70
2022-12-14T01:01:12.310Z,6.10
2022-12-14T01:03:39.775Z,6.33
2022-12-14T01:06:14.466Z,4.90
2022-12-14T01:08:41.766Z,5.37
2022-12-14T01:11:10.426Z,4.90
2022-12-14T01:13:38.843Z,5.03
2022-12-14T01:16:08.207Z,4.97
2022-12-14T01:18:37.448Z,4.67
2022-12-14T01:21:19.986Z,5.07
2022-12-14T01:23:51.100Z,5.23
2022-12-14T01:26:19.055Z,5.03
2022-12-14T01:28:47.442Z,5.37
2022-12-14T01:31:20.014Z,5.07
2022-12-14T01:33:48.025Z,4.33
2022-12-14T01:36:17.924Z,5.07
2022-12-14T01:38:46.326Z,5.87
2022-12-14T01:41:25.073Z,4.10
2022-12-14T01:43:55.717Z,4.20
2022-12-14T01:46:33.853Z,4.27
2022-12-14T01:49:11.419Z,5.30
2022-12-14T01:51:44.148Z,5.10
2022-12-14T01:54:13.974Z,4.23
2022-12-14T01:56:44.604Z,5.10
2022-12-14T01:59:22.090Z,4.20
2022-12-14T02:01:49.701Z,4.13
2022-12-14T02:04:18.692Z,4.70
2022-12-14T02:06:48.960Z,4.63
2022-12-14T02:09:25.403Z,4.77
2022-12-14T02:11:56.755Z,4.83
2022-12-14T02:14:24.681Z,5.33
2022-12-14T02:16:55.081Z,4.73
2022-12-14T02:19:22.460Z,5.73
2022-12-14T02:22:11.755Z,4.90
2022-12-14T02:25:16.086Z,3.80
2022-12-14T02:28:12.033Z,5.00
2022-12-14T02:30:41.087Z,4.40
2022-12-14T02:33:34.947Z,4.57
2022-12-14T02:36:10.803Z,4.63
2022-12-14T02:39:01.234Z,4.60
2022-12-14T02:42:04.927Z,4.80
2022-12-14T02:44:51.531Z,5.47
2022-12-14T02:47:24.439Z,5.00
2022-12-14T02:50:06.860Z,5.47
2022-12-14T02:53:14.334Z,4.70
2022-12-14T02:55:49.883Z,4.87
2022-12-14T02:58:27.896Z,4.63
2022-12-14T03:00:56.650Z,4.27
2022-12-14T03:03:24.867Z,4.07
2022-12-14T03:06:17.827Z,4.20
2022-12-14T03:08:46.935Z,4.40
2022-12-14T03:11:20.312Z,4.53
2022-12-14T03:13:57.318Z,5.10
2022-12-14T03:16:28.336Z,3.97
2022-12-14T03:19:05.218Z,4.17
2022-12-14T03:21:36.434Z,5.43
2022-12-14T03:24:12.510Z,4.50
2022-12-14T03:26:49.994Z,4.27
2022-12-14T03:29:33.823Z,4.90
2022-12-14T03:32:13.745Z,4.53
2022-12-14T03:34:49.468Z,4.63
2022-12-14T03:37:30.292Z,4.27
2022-12-14T03:39:58.042Z,3.50
2022-12-14T03:42:50.007Z,4.40
2022-12-14T03:45:33.746Z,4.30
2022-12-14T03:48:30.201Z,4.20
2022-12-14T03:51:06.159Z,4.17
2022-12-14T03:53:46.811Z,3.93
2022-12-14T03:56:40.289Z,4.87
2022-12-14T03:59:22.206Z,4.33
2022-12-14T04:02:02.602Z,4.27
2022-12-14T04:04:34.080Z,4.00
2022-12-14T04:07:12.646Z,4.57
2022-12-14T04:09:51.151Z,3.90
2022-12-14T04:12:54.800Z,4.27
2022-12-14T04:15:45.008Z,4.33
2022-12-14T04:18:37.964Z,5.00
2022-12-14T04:21:16.169Z,4.43
2022-12-14T04:24:07.611Z,3.90
2022-12-14T04:26:41.957Z,3.97
2022-12-14T04:29:36.388Z,4.73
2022-12-14T04:32:23.181Z,4.37
2022-12-14T04:34:59.158Z,4.57
2022-12-14T04:37:28.867Z,4.67
2022-12-14T04:40:23.927Z,4.37
2022-12-14T04:42:56.344Z,4.23
2022-12-14T04:45:33.360Z,4.40
2022-12-14T04:48:29.177Z,4.67
2022-12-14T04:51:07.998Z,4.30
2022-12-14T04:53:37.577Z,4.37
2022-12-14T04:56:20.547Z,3.40
2022-12-14T04:58:48.166Z,5.30
2022-12-14T05:01:34.488Z,4.40
2022-12-14T05:04:14.613Z,5.03
2022-12-14T05:07:26.653Z,4.60
2022-12-14T05:10:11.358Z,4.23
2022-12-14T05:12:56.480Z,3.93
2022-12-14T05:15:30.604Z,5.23
2022-12-14T05:18:03.069Z,4.67
2022-12-14T05:20:30.491Z,4.47
2022-12-14T05:22:57.864Z,3.87
2022-12-14T05:25:25.273Z,4.63
2022-12-14T05:27:52.486Z,4.50
2022-12-14T05:30:19.912Z,4.20
2022-12-14T05:32:47.195Z,4.80
2022-12-14T05:35:15.239Z,4.40
2022-12-14T05:37:43.090Z,4.60
2022-12-14T05:40:11.658Z,4.80
2022-12-14T05:42:44.301Z,4.57
2022-12-14T05:45:14.358Z,4.97
2022-12-14T05:47:41.661Z,5.17
2022-12-14T05:50:09.319Z,4.77
2022-12-14T05:52:37.709Z,4.87
2022-12-14T05:55:05.311Z,4.37
2022-12-14T05:57:32.621Z,4.30
2022-12-14T06:00:00.303Z,4.57
2022-12-14T06:02:27.827Z,4.43
2022-12-14T06:04:55.101Z,4.63
2022-12-14T06:07:27.453Z,4.67
2022-12-14T06:09:55.413Z,5.27
2022-12-14T06:12:22.772Z,4.43
2022-12-14T06:14:49.940Z,4.90
2022-12-14T06:17:17.543Z,4.40
2022-12-14T06:19:49.657Z,4.60
2022-12-14T06:22:18.939Z,5.23
2022-12-14T06:24:46.186Z,3.90
2022-12-14T06:27:13.423Z,5.07
2022-12-14T06:29:40.741Z,5.07
2022-12-14T06:32:07.999Z,4.27
2022-12-14T06:34:38.692Z,4.43
2022-12-14T06:37:07.948Z,4.63
2022-12-14T06:39:38.123Z,5.63
2022-12-14T06:42:06.025Z,4.43
2022-12-14T06:44:33.314Z,4.63
2022-12-14T06:47:00.796Z,3.80
2022-12-14T06:49:28.125Z,4.27
2022-12-14T06:51:55.643Z,5.13
2022-12-14T06:54:23.126Z,5.27
2022-12-14T06:56:50.386Z,5.10
2022-12-14T06:59:17.788Z,4.47
2022-12-14T07:01:46.236Z,4.70
2022-12-14T07:04:18.796Z,4.07
2022-12-14T07:06:46.022Z,5.30
2022-12-14T07:09:14.547Z,4.50
2022-12-14T07:11:42.104Z,4.80
2022-12-14T07:14:16.136Z,4.70
2022-12-14T07:16:47.744Z,4.70
2022-12-14T07:19:15.725Z,4.63
2022-12-14T07:21:42.986Z,5.30
2022-12-14T07:24:10.262Z,5.50
2022-12-14T07:26:37.957Z,5.00
2022-12-14T07:29:06.549Z,4.87
2022-12-14T07:31:33.835Z,5.33
2022-12-14T07:34:01.238Z,4.83
2022-12-14T07:36:30.031Z,4.53
2022-12-14T07:38:57.873Z,5.27
2022-12-14T07:41:28.043Z,4.50
2022-12-14T07:43:56.000Z,5.27
2022-12-14T07:46:25.677Z,4.87
2022-12-14T07:48:55.292Z,4.60
2022-12-14T07:51:25.955Z,4.93
2022-12-14T07:53:54.438Z,5.00
2022-12-14T07:56:27.422Z,4.70
2022-12-14T07:58:56.580Z,5.80
2022-12-14T08:01:26.950Z,5.27
2022-12-14T08:04:00.347Z,5.47
2022-12-14T08:06:29.584Z,5.97
2022-12-14T08:08:57.392Z,4.97
2022-12-14T08:11:25.139Z,5.30
2022-12-14T08:13:56.733Z,4.87
2022-12-14T08:16:24.972Z,5.10
2022-12-14T08:18:57.321Z,5.47
2022-12-14T08:21:26.733Z,6.57
2022-12-14T08:23:55.504Z,5.67
2022-12-14T08:26:25.607Z,5.80
2022-12-14T08:28:57.447Z,5.90
2022-12-14T08:31:27.778Z,5.63
2022-12-14T08:33:55.471Z,5.47
2022-12-14T08:36:25.655Z,5.27
2022-12-14T08:38:58.487Z,5.70
2022-12-14T08:41:27.573Z,6.00
2022-12-14T08:43:57.152Z,5.23
2022-12-14T08:46:26.173Z,5.37
2022-12-14T08:48:55.054Z,5.73
2022-12-14T08:51:24.251Z,5.77
2022-12-14T08:53:52.901Z,5.43
2022-12-14T08:56:26.106Z,6.00
2022-12-14T08:58:53.964Z,5.67
2022-12-14T09:01:34.112Z,5.47
2022-12-14T09:04:06.609Z,6.60
2022-12-14T09:06:39.179Z,5.73
2022-12-14T09:09:13.646Z,5.40
2022-12-14T09:11:43.043Z,6.17
2022-12-14T09:14:10.755Z,5.90
2022-12-14T09:16:38.390Z,6.33
2022-12-14T09:19:06.062Z,6.13
2022-12-14T09:21:33.469Z,6.90
2022-12-14T09:24:01.398Z,6.53
2022-12-14T09:26:29.701Z,5.97
2022-12-14T09:28:58.032Z,5.80
2022-12-14T09:31:27.183Z,5.77
2022-12-14T09:33:55.052Z,6.10
2022-12-14T09:36:28.342Z,6.30
2022-12-14T09:38:57.556Z,6.40
2022-12-14T09:41:29.081Z,5.97
2022-12-14T09:44:04.819Z,6.83
2022-12-14T09:47:04.101Z,6.70
2022-12-14T09:49:38.716Z,7.37
2022-12-14T09:52:10.485Z,6.37
2022-12-14T09:54:39.400Z,6.83
2022-12-14T09:57:19.674Z,7.43
2022-12-14T09:59:46.962Z,6.53
2022-12-14T10:02:33.809Z,6.87
2022-12-14T10:05:27.140Z,7.23
2022-12-14T10:08:23.563Z,7.03
2022-12-14T10:11:01.171Z,6.53
2022-12-14T10:13:54.783Z,7.87
2022-12-14T10:16:30.703Z,7.23
2022-12-14T10:19:27.720Z,6.67
2022-12-14T10:21:59.946Z,7.17
2022-12-14T10:25:09.809Z,8.90
2022-12-14T10:28:09.384Z,6.83
2022-12-14T10:30:29.046Z,7.70
2022-12-14T10:33:31.397Z,7.00
2022-12-14T10:36:29.534Z,7.43
2022-12-14T10:39:02.017Z,7.97
2022-12-14T10:41:39.626Z,8.03
2022-12-14T10:44:27.944Z,7.33
2022-12-14T10:47:16.297Z,7.27
2022-12-14T10:49:58.925Z,7.77
2022-12-14T10:52:33.994Z,6.67
2022-12-14T10:55:07.172Z,7.10
2022-12-14T10:57:34.469Z,7.83
2022-12-14T11:00:10.359Z,7.97
2022-12-14T11:02:42.445Z,7.17
2022-12-14T11:05:29.786Z,7.73
2022-12-14T11:08:00.086Z,8.30
2022-12-14T11:10:29.759Z,8.57
2022-12-14T11:13:04.264Z,8.90
2022-12-14T11:15:43.605Z,8.27
2022-12-14T11:18:17.028Z,8.13
2022-12-14T11:20:55.090Z,8.13
2022-12-14T11:23:45.124Z,7.10
2022-12-14T11:26:25.683Z,7.90
2022-12-14T11:28:55.995Z,8.27
2022-12-14T11:31:44.699Z,8.57
2022-12-14T11:34:30.048Z,8.23
2022-12-14T11:37:11.517Z,8.27
2022-12-14T11:39:42.439Z,7.70
2022-12-14T11:42:18.918Z,8.27
2022-12-14T11:44:48.516Z,8.57
2022-12-14T11:47:21.507Z,8.43
2022-12-14T11:49:51.237Z,7.20
2022-12-14T11:52:36.767Z,7.53
2022-12-14T11:55:13.023Z,9.37
2022-12-14T11:57:53.858Z,8.23
2022-12-14T12:00:27.659Z,9.43
2022-12-14T12:03:00.408Z,8.67
2022-12-14T12:05:31.687Z,9.17
2022-12-14T12:08:02.283Z,8.77
2022-12-14T12:10:44.896Z,8.60
2022-12-14T12:13:38.398Z,9.20
2022-12-14T12:16:19.713Z,9.13
2022-12-14T12:18:55.376Z,9.30
2022-12-14T12:21:34.654Z,8.87
2022-12-14T12:24:13.798Z,9.53
2022-12-14T12:26:49.822Z,8.30
2022-12-14T12:29:29.835Z,10.03
2022-12-14T12:32:13.325Z,9.90
2022-12-14T12:34:53.029Z,9.00
2022-12-14T12:37:35.519Z,8.70
2022-12-14T12:40:13.955Z,9.40
2022-12-14T12:43:09.589Z,9.20
2022-12-14T12:45:45.456Z,10.23
2022-12-14T12:48:25.282Z,8.70
2022-12-14T12:50:57.620Z,9.33
2022-12-14T12:53:34.347Z,9.87
2022-12-14T12:56:10.819Z,9.63
2022-12-14T12:58:40.378Z,10.13
2022-12-14T13:01:27.866Z,9.27
2022-12-14T13:03:59.114Z,9.70
2022-12-14T13:06:41.408Z,10.03
2022-12-14T13:09:41.944Z,9.13
2022-12-14T13:12:22.386Z,9.87
2022-12-14T13:14:52.318Z,9.37
2022-12-14T13:17:49.555Z,9.53
2022-12-14T13:20:28.304Z,9.77
2022-12-14T13:22:59.533Z,9.13
2022-12-14T13:26:48.570Z,9.17
2022-12-14T13:29:38.974Z,9.90
2022-12-14T13:32:33.804Z,9.83
2022-12-14T13:35:25.583Z,10.30
2022-12-14T13:38:09.952Z,9.80
2022-12-14T13:41:10.758Z,10.93
2022-12-14T13:44:07.710Z,9.57
2022-12-14T13:46:35.112Z,10.10
2022-12-14T13:49:08.916Z,10.63
2022-12-14T13:51:40.810Z,9.03
2022-12-14T13:54:24.979Z,10.40
2022-12-14T13:57:05.157Z,10.37
2022-12-14T13:59:40.745Z,12.07
2022-12-14T14:02:31.118Z,11.23
2022-12-14T14:05:19.629Z,9.83
2022-12-14T14:07:51.725Z,10.57
2022-12-14T14:10:34.504Z,11.57
2022-12-14T14:13:29.744Z,10.30
2022-12-14T14:19:00.736Z,10.43
2022-12-14T14:22:14.203Z,10.10
2022-12-14T14:24:56.645Z,11.50
2022-12-14T14:27:27.684Z,10.80
2022-12-14T14:29:56.623Z,10.37
2022-12-14T14:32:42.828Z,10.67
2022-12-14T14:35:25.420Z,10.47
2022-12-14T14:38:22.341Z,11.07
2022-12-14T14:41:19.309Z,10.63
2022-12-14T14:43:50.642Z,10.77
2022-12-14T14:46:23.065Z,10.67
2022-12-14T14:48:54.075Z,11.40
2022-12-14T14:51:28.339Z,10.87
2022-12-14T14:57:53.847Z,10.80
2022-12-14T15:00:22.945Z,11.00
2022-12-14T15:02:53.166Z,12.10
2022-12-14T15:05:43.381Z,11.73
2022-12-14T15:08:37.442Z,10.70
2022-12-14T15:11:14.091Z,11.27
2022-12-14T15:13:53.856Z,11.97
2022-12-14T15:16:40.941Z,11.37
2022-12-14T15:19:33.630Z,11.87
2022-12-14T15:22:05.017Z,11.40
2022-12-14T15:24:43.942Z,11.73
2022-12-14T15:27:27.472Z,11.73
2022-12-14T15:30:10.454Z,12.43
2022-12-14T15:32:47.451Z,11.00
2022-12-14T15:35:19.153Z,11.60
2022-12-14T15:37:56.440Z,11.93
2022-12-14T15:40:30.318Z,11.17
2022-12-14T15:43:01.289Z,11.13
2022-12-14T15:45:40.781Z,11.03
2022-12-14T15:48:15.404Z,10.20
2022-12-14T15:50:48.548Z,11.07
2022-12-14T15:53:31.259Z,10.53
2022-12-14T15:56:06.719Z,11.37
2022-12-14T15:58:39.106Z,11.97
2022-12-14T16:01:25.543Z,12.57
2022-12-14T16:03:55.766Z,11.40
2022-12-14T16:06:26.344Z,10.93
2022-12-14T16:09:02.418Z,11.47
2022-12-14T16:11:40.862Z,12.50
2022-12-14T16:14:46.912Z,12.90
2022-12-14T16:17:22.785Z,11.77
2022-12-14T16:20:18.814Z,12.13
2022-12-14T16:23:05.364Z,12.17
2022-12-14T16:25:35.659Z,12.60
2022-12-14T16:28:37.095Z,12.93
2022-12-14T16:31:17.734Z,13.07
2022-12-14T16:34:05.075Z,12.00
2022-12-14T16:36:34.682Z,12.80
2022-12-14T16:39:14.440Z,13.63
2022-12-14T16:41:44.172Z,12.77
2022-12-14T16:44:32.486Z,12.40
2022-12-14T16:47:02.920Z,12.17
2022-12-14T16:49:42.631Z,13.53
2022-12-14T16:52:09.932Z,12.63
2022-12-14T16:54:38.597Z,12.70
2022-12-14T16:57:18.200Z,11.50
2022-12-14T16:59:47.903Z,15.63
2022-12-14T17:02:35.121Z,15.33
2022-12-14T17:05:12.369Z,12.70
2022-12-14T17:07:40.034Z,14.30
2022-12-14T17:10:16.337Z,13.17
2022-12-14T17:12:50.866Z,14.47
2022-12-14T17:15:21.691Z,15.20
2022-12-14T17:17:54.559Z,14.00
2022-12-14T17:20:26.282Z,13.27
2022-12-14T17:22:56.391Z,12.97
2022-12-14T17:25:23.981Z,12.33
2022-12-14T17:27:52.824Z,12.20
2022-12-14T17:30:22.471Z,14.20
2022-12-14T17:32:51.759Z,17.45
2022-12-14T17:35:29.739Z,12.20
2022-12-14T17:37:57.222Z,12.57
2022-12-14T17:40:25.464Z,12.27
2022-12-14T17:42:55.004Z,13.47
2022-12-14T17:45:25.988Z,14.80
2022-12-14T17:47:54.414Z,12.97
2022-12-14T17:50:22.863Z,13.23
2022-12-14T17:52:50.490Z,12.20
2022-12-14T17:55:20.595Z,13.53
2022-12-14T17:57:48.148Z,12.10
2022-12-14T18:00:36.461Z,13.97
2022-12-14T18:03:04.616Z,12.63
2022-12-14T18:05:32.560Z,13.07
2022-12-14T18:08:00.169Z,14.27
2022-12-14T18:10:28.191Z,20.83
2022-12-14T18:12:56.068Z,17.03
2022-12-14T18:15:29.618Z,14.23
2022-12-14T18:17:57.385Z,15.77
2022-12-14T18:20:24.884Z,15.13
2022-12-14T18:22:52.888Z,14.30
2022-12-14T18:25:34.879Z,13.33
2022-12-14T18:28:04.401Z,14.03
2022-12-14T18:30:39.464Z,13.87
2022-12-14T18:33:15.752Z,13.07
2022-12-14T18:35:44.393Z,13.73
2022-12-14T18:38:12.695Z,13.60
2022-12-14T18:40:42.449Z,12.67
2022-12-14T18:43:17.174Z,14.43
2022-12-14T18:45:44.464Z,14.53
2022-12-14T18:48:13.666Z,14.63
2022-12-14T18:50:43.092Z,14.53
2022-12-14T18:53:15.619Z,14.73
2022-12-14T18:55:43.536Z,14.20
2022-12-14T18:58:26.500Z,13.33
2022-12-14T19:00:56.393Z,12.90
2022-12-14T19:03:25.383Z,12.97
2022-12-14T19:06:26.825Z,13.03
2022-12-14T19:08:49.652Z,12.67
2022-12-14T19:11:20.176Z,12.93
2022-12-14T19:13:48.401Z,13.53
2022-12-14T19:16:15.779Z,14.60
2022-12-14T19:18:43.049Z,15.57
2022-12-14T19:21:10.519Z,15.70
2022-12-14T19:23:37.825Z,14.50
2022-12-14T19:26:05.382Z,14.97
2022-12-14T19:28:33.537Z,14.07
2022-12-14T19:31:01.909Z,13.30
2022-12-14T19:33:30.180Z,14.53
2022-12-14T19:35:57.855Z,14.23
2022-12-14T19:38:25.151Z,13.47
2022-12-14T19:41:03.530Z,13.53
2022-12-14T19:43:31.731Z,15.20
2022-12-14T19:46:00.819Z,16.73
2022-12-14T19:48:29.215Z,16.53
2022-12-14T19:50:56.520Z,15.80
2022-12-14T19:53:32.040Z,16.23
2022-12-14T19:55:59.981Z,15.27
2022-12-14T19:58:28.436Z,15.40
2022-12-14T20:00:56.556Z,14.40
2022-12-14T20:03:24.530Z,16.03
2022-12-14T20:05:55.269Z,15.80
2022-12-14T20:08:23.445Z,15.30
2022-12-14T20:10:54.452Z,14.40
2022-12-14T20:13:24.295Z,15.67
2022-12-14T20:16:02.030Z,14.83
2022-12-14T20:18:31.019Z,14.50
2022-12-14T20:21:07.496Z,15.23
2022-12-14T20:23:36.234Z,15.80
2022-12-14T20:26:06.176Z,15.33
2022-12-14T20:28:33.617Z,15.57
2022-12-14T20:31:01.318Z,15.90
2022-12-14T20:33:30.793Z,14.47
2022-12-14T20:35:59.257Z,15.27
2022-12-14T20:38:26.962Z,14.93
2022-12-14T20:40:54.416Z,16.73
2022-12-14T20:43:21.801Z,15.90
2022-12-14T20:45:49.002Z,16.03
2022-12-14T20:48:16.210Z,15.40
2022-12-14T20:50:44.160Z,17.83
2022-12-14T20:53:17.700Z,17.30
2022-12-14T20:55:44.983Z,18.83
2022-12-14T20:58:12.195Z,17.77
2022-12-14T21:00:39.480Z,16.70
2022-12-14T21:03:06.926Z,17.57
2022-12-14T21:05:38.762Z,17.67
2022-12-14T21:08:06.124Z,17.47
2022-12-14T21:10:39.204Z,18.27
2022-12-14T21:13:21.212Z,16.23
2022-12-14T21:16:18.543Z,16.77
2022-12-14T21:19:22.907Z,17.03
2022-12-14T21:21:54.313Z,16.17
2022-12-14T21:25:00.943Z,17.17
2022-12-14T21:27:27.836Z,18.80
2022-12-14T21:29:58.350Z,18.63
2022-12-14T21:33:14.176Z,18.03
2022-12-14T21:36:41.937Z,18.30
2022-12-14T21:40:42.764Z,18.30
2022-12-14T22:09:23.864Z,16.07
2022-12-14T22:12:43.607Z,15.37
2022-12-14T22:25:28.678Z,14.43
2022-12-14T22:28:41.384Z,15.73
2022-12-14T22:31:20.169Z,14.50
2022-12-14T22:34:27.043Z,16.93
2022-12-14T22:37:06.213Z,15.13
2022-12-14T22:39:39.087Z,16.90
2022-12-14T22:42:55.025Z,16.57
2022-12-14T22:45:31.661Z,16.63
2022-12-14T22:47:59.755Z,17.40
2022-12-14T22:50:33.373Z,15.10
2022-12-14T22:53:01.186Z,16.47
2022-12-14T22:55:37.437Z,16.70
2022-12-14T22:58:13.843Z,15.93
2022-12-14T23:00:41.776Z,15.80
2022-12-14T23:03:37.237Z,16.90
2022-12-14T23:06:05.561Z,15.57
2022-12-14T23:08:32.999Z,16.00
2022-12-14T23:11:22.091Z,16.07
2022-12-14T23:14:16.966Z,15.73
2022-12-14T23:17:05.747Z,16.87
2022-12-14T23:19:52.211Z,17.07
2022-12-14T23:22:37.859Z,15.97
2022-12-14T23:25:24.291Z,15.90
2022-12-14T23:28:09.945Z,17.33
2022-12-14T23:30:56.103Z,17.70
2022-12-14T23:33:42.070Z,16.07
2022-12-14T23:36:27.626Z,16.17
2022-12-14T23:39:13.343Z,15.93
2022-12-14T23:41:59.234Z,16.00
2022-12-14T23:44:44.882Z,15.97
2022-12-14T23:47:30.779Z,16.67
2022-12-14T23:50:16.548Z,16.77
2022-12-14T23:53:02.301Z,16.83
2022-12-14T23:55:48.122Z,17.37
2022-12-14T23:58:34.589Z,16.67
